createdAt,value
2022-11-16T00:04:04.192Z,4.6474
2022-11-16T00:09:05.787Z,3.48555
2022-11-16T00:14:07.596Z,2.3237
2022-11-16T00:19:09.422Z,1.16185
2022-11-16T00:24:11.268Z,0
2022-11-16T00:29:13.154Z,0.88715
2022-11-16T00:34:15.959Z,0
2022-11-16T00:39:17.623Z,0
2022-11-16T00:44:19.428Z,0
2022-11-16T00:49:21.299Z,0
2022-11-16T00:54:23.019Z,0
2022-11-16T00:59:24.682Z,0
2022-11-16T01:04:26.497Z,0
2022-11-16T01:09:28.141Z,0
2022-11-16T01:14:29.876Z,0
2022-11-16T01:19:31.553Z,0
2022-11-16T01:24:33.160Z,0
2022-11-16T01:29:34.914Z,0
2022-11-16T01:34:36.572Z,0
2022-11-16T01:39:38.246Z,0
2022-11-16T01:44:39.884Z,0
2022-11-16T01:49:41.504Z,0
2022-11-16T01:54:43.298Z,0
2022-11-16T01:59:45.570Z,0
2022-11-16T02:04:48.039Z,0
2022-11-16T02:09:50.694Z,0
2022-11-16T02:14:52.572Z,0
2022-11-16T02:19:54.371Z,0
2022-11-16T02:24:56.218Z,0
2022-11-16T02:29:57.857Z,0
2022-11-16T02:34:59.648Z,0
2022-11-16T02:40:01.669Z,0
2022-11-16T02:45:03.520Z,0
2022-11-16T02:50:06.887Z,0
2022-11-16T02:55:09.361Z,0
2022-11-16T03:00:11.346Z,0
2022-11-16T03:05:13.071Z,0
2022-11-16T03:10:15.222Z,0
2022-11-16T03:15:17.156Z,0
2022-11-16T03:20:20.194Z,0
2022-11-16T03:25:21.836Z,0
2022-11-16T03:35:29.290Z,0
2022-11-16T03:40:30.968Z,0
2022-11-16T03:45:32.677Z,0
2022-11-16T03:50:34.487Z,0
2022-11-16T03:55:36.527Z,0
2022-11-16T04:00:38.560Z,0
2022-11-16T04:05:40.636Z,0
2022-11-16T04:10:43.910Z,0
2022-11-16T04:15:45.669Z,0
2022-11-16T04:20:47.379Z,0
2022-11-16T04:25:49.056Z,0
2022-11-16T04:30:50.695Z,0
2022-11-16T04:35:52.544Z,0
2022-11-16T04:40:56.254Z,0
2022-11-16T04:45:58.771Z,0
2022-11-16T04:51:00.915Z,0
2022-11-16T04:56:03.306Z,0
2022-11-16T05:01:05.149Z,0
2022-11-16T05:06:07.213Z,0
2022-11-16T05:11:08.929Z,0
2022-11-16T05:16:10.939Z,0
2022-11-16T05:21:12.753Z,0
2022-11-16T05:26:15.456Z,0
2022-11-16T05:31:17.654Z,0
2022-11-16T05:36:19.866Z,0
2022-11-16T05:41:25.425Z,0
2022-11-16T05:46:27.876Z,0
2022-11-16T05:51:32.813Z,0
2022-11-16T05:56:35.381Z,0
2022-11-16T06:01:37.854Z,0
2022-11-16T06:06:40.216Z,0
2022-11-16T06:11:42.571Z,0
2022-11-16T06:16:45.248Z,0
2022-11-16T06:21:50.166Z,0
2022-11-16T06:26:52.372Z,0
2022-11-16T06:31:54.720Z,0
2022-11-16T06:37:00.014Z,0
2022-11-16T06:42:03.469Z,0
2022-11-16T06:47:05.869Z,0
2022-11-16T06:52:07.864Z,0
2022-11-16T06:57:10.299Z,0
2022-11-16T07:02:12.944Z,0
2022-11-16T07:07:15.611Z,0
2022-11-16T07:12:17.648Z,0
2022-11-16T07:17:19.550Z,0
2022-11-16T07:22:21.570Z,0
2022-11-16T07:27:24.203Z,0
2022-11-16T07:32:27.788Z,0
2022-11-16T07:37:29.633Z,0
2022-11-16T07:42:31.299Z,0
2022-11-16T07:47:34.457Z,0
2022-11-16T07:52:36.845Z,0
2022-11-16T07:57:39.022Z,0
2022-11-16T08:02:41.193Z,0
2022-11-16T08:07:42.872Z,0
2022-11-16T08:12:44.473Z,0
2022-11-16T08:17:46.102Z,0
2022-11-16T08:22:47.744Z,0
2022-11-16T08:27:49.357Z,0
2022-11-16T08:32:50.991Z,0
2022-11-16T08:37:53.242Z,0
2022-11-16T08:42:55.057Z,0
2022-11-16T08:48:03.477Z,0
2022-11-16T08:53:05.856Z,0
2022-11-16T08:58:07.692Z,0
2022-11-16T09:03:09.456Z,0
2022-11-16T09:08:11.489Z,0
2022-11-16T09:13:14.453Z,0
2022-11-16T09:18:16.445Z,0
2022-11-16T09:23:23.783Z,0
2022-11-16T09:28:27.596Z,0
2022-11-16T09:33:29.338Z,0
2022-11-16T09:38:54.248Z,0
2022-11-16T09:44:05.952Z,0
2022-11-16T09:49:16.865Z,0
2022-11-16T09:54:19.573Z,0
2022-11-16T09:59:21.220Z,0
2022-11-16T10:04:23.070Z,0
2022-11-16T10:09:24.691Z,0
2022-11-16T10:14:26.329Z,0
2022-11-16T10:19:28.108Z,0
2022-11-16T10:24:29.914Z,0
2022-11-16T10:29:31.655Z,0
2022-11-16T10:34:33.289Z,0
2022-11-16T10:39:35.012Z,0
2022-11-16T10:44:36.712Z,0
2022-11-16T10:49:38.350Z,0
2022-11-16T10:54:44.083Z,0
2022-11-16T10:59:46.405Z,0
2022-11-16T11:04:48.125Z,0
2022-11-16T11:09:49.802Z,0
2022-11-16T11:14:51.423Z,0
2022-11-16T11:19:53.197Z,0
2022-11-16T11:24:54.851Z,0
2022-11-16T11:29:56.911Z,0
2022-11-16T11:34:58.612Z,0
2022-11-16T11:40:00.199Z,0
2022-11-16T11:45:01.839Z,0
2022-11-16T11:50:03.726Z,0
2022-11-16T11:55:05.375Z,0
2022-11-16T12:00:07.108Z,0
2022-11-16T12:05:08.770Z,0
2022-11-16T12:10:10.432Z,0
2022-11-16T12:15:12.174Z,0
2022-11-16T12:20:13.824Z,0
2022-11-16T12:25:15.502Z,0
2022-11-16T12:30:17.125Z,0
2022-11-16T12:35:18.818Z,0
2022-11-16T12:40:20.439Z,0
2022-11-16T12:45:22.139Z,0
2022-11-16T12:50:23.797Z,0
2022-11-16T12:55:27.211Z,0
2022-11-16T13:00:31.191Z,0
2022-11-16T13:05:33.039Z,0
2022-11-16T13:10:34.924Z,0
2022-11-16T13:15:36.850Z,0
2022-11-16T13:20:38.720Z,0
2022-11-16T13:25:40.469Z,0
2022-11-16T13:30:42.334Z,0
2022-11-16T13:35:44.025Z,0
2022-11-16T13:40:45.836Z,0
2022-11-16T13:45:47.596Z,0
2022-11-16T13:50:49.475Z,0
2022-11-16T13:55:51.384Z,0
2022-11-16T14:00:53.373Z,0
2022-11-16T14:05:55.209Z,0
2022-11-16T14:10:56.888Z,0
2022-11-16T14:16:00.542Z,0
2022-11-16T14:21:02.514Z,0
2022-11-16T14:26:04.303Z,0
2022-11-16T14:31:06.169Z,0
2022-11-16T14:36:07.883Z,0
2022-11-16T14:41:09.630Z,0
2022-11-16T14:46:11.311Z,0.88715
2022-11-16T14:51:13.067Z,1.16185
2022-11-16T14:56:14.695Z,2.3237
2022-11-16T15:01:16.333Z,0.88885
2022-11-16T15:06:18.064Z,1.7152
2022-11-16T15:11:19.935Z,2.1925
2022-11-16T15:16:21.578Z,4.59225
2022-11-16T15:21:23.461Z,7.1004
2022-11-16T15:26:25.145Z,11.3789
2022-11-16T15:31:26.837Z,13.0941
2022-11-16T15:36:28.504Z,15.60225
2022-11-16T15:41:30.400Z,11.8771
2022-11-16T15:46:32.213Z,17.31745
2022-11-16T15:51:34.077Z,22.94225
2022-11-16T15:56:36.002Z,21.22705
2022-11-16T16:01:37.770Z,23.3663
2022-11-16T16:06:39.489Z,29.1204
2022-11-16T16:11:41.186Z,30.0978
2022-11-16T16:16:42.871Z,25.76415
2022-11-16T16:21:44.470Z,36.27595
2022-11-16T16:26:46.293Z,42.39895
2022-11-16T16:31:47.955Z,46.2534
2022-11-16T16:36:49.539Z,46.9912
2022-11-16T16:41:51.165Z,50.84565
2022-11-16T16:46:53.645Z,55.49305
2022-11-16T16:51:57.363Z,54.9397
2022-11-16T16:56:59.577Z,54.9397
2022-11-16T17:02:01.296Z,58.18565
2022-11-16T17:07:03.880Z,63.9949
2022-11-16T17:12:06.256Z,63.5157
2022-11-16T17:17:08.056Z,78.1957
2022-11-16T17:22:09.971Z,80.94345
2022-11-16T17:27:12.499Z,81.8657
2022-11-16T17:32:14.432Z,86.08905
2022-11-16T17:37:17.006Z,97.09905
2022-11-16T17:42:19.091Z,89.99865
2022-11-16T17:47:20.910Z,109.21575
2022-11-16T17:52:22.870Z,118.0865
2022-11-16T17:57:24.791Z,125.00245
2022-11-16T18:02:26.509Z,143.61105
2022-11-16T18:07:28.877Z,155.6726
2022-11-16T18:12:30.737Z,87.04745
2022-11-16T18:17:32.428Z,115.08015
2022-11-16T18:22:34.186Z,113.97345
2022-11-16T18:27:35.892Z,159.50805
2022-11-16T18:32:37.570Z,153.9574
2022-11-16T18:37:39.385Z,151.06135
2022-11-16T18:42:41.010Z,146.5984
2022-11-16T18:47:42.904Z,142.37505
2022-11-16T18:52:46.506Z,149.0514
2022-11-16T18:57:48.245Z,153.88325
2022-11-16T19:02:57.003Z,149.60475
2022-11-16T19:07:58.732Z,154.4366
2022-11-16T19:13:00.431Z,155.22955
2022-11-16T19:18:20.734Z,150.21325
2022-11-16T19:23:23.383Z,154.0677
2022-11-16T19:28:25.001Z,154.0677
2022-11-16T19:33:26.659Z,149.10655
2022-11-16T19:38:28.385Z,151.79915
2022-11-16T19:43:30.250Z,138.7792
2022-11-16T19:48:32.066Z,152.90585
2022-11-16T19:53:33.982Z,136.8054
2022-11-16T19:58:36.213Z,142.37505
2022-11-16T20:03:38.262Z,145.9899
2022-11-16T20:08:40.251Z,134.55585
2022-11-16T20:13:41.970Z,137.85695
2022-11-16T20:18:43.776Z,138.281
2022-11-16T20:23:45.432Z,134.55585
2022-11-16T20:28:47.199Z,129.2258
2022-11-16T20:33:48.928Z,128.67245
2022-11-16T20:38:50.633Z,117.29355
2022-11-16T20:43:52.343Z,115.33875
2022-11-16T20:48:54.036Z,102.2998
2022-11-16T20:53:55.695Z,88.52305
2022-11-16T20:58:57.357Z,95.75275
2022-11-16T21:03:59.137Z,97.1542
2022-11-16T21:09:00.793Z,118.76915
2022-11-16T21:14:02.745Z,120.5395
2022-11-16T21:19:04.575Z,138.96365
2022-11-16T21:24:06.381Z,120.85325
2022-11-16T21:29:08.004Z,117.79175
2022-11-16T21:34:09.646Z,97.96615
2022-11-16T21:39:11.316Z,100.05025
2022-11-16T21:44:13.012Z,118.52955
2022-11-16T21:49:15.965Z,118.05035
2022-11-16T21:54:17.807Z,117.8659
2022-11-16T21:59:19.486Z,112.3514
2022-11-16T22:04:21.230Z,91.10535
2022-11-16T22:09:23.006Z,90.25725
2022-11-16T22:14:24.656Z,87.9887
2022-11-16T22:19:26.478Z,65.89455
2022-11-16T22:24:28.141Z,54.01745
2022-11-16T22:29:29.945Z,45.57075
2022-11-16T22:34:31.618Z,46.54815
2022-11-16T22:39:33.401Z,46.1241
2022-11-16T22:44:35.033Z,42.26965
2022-11-16T22:49:36.661Z,40.1304
2022-11-16T22:54:38.270Z,40.1304
2022-11-16T22:59:39.950Z,41.2371
2022-11-16T23:04:41.836Z,39.7615
2022-11-16T23:09:43.561Z,30.3374
2022-11-16T23:14:45.238Z,21.0426
2022-11-16T23:19:46.870Z,20.6737
2022-11-16T23:24:48.521Z,19.88075
2022-11-16T23:29:50.200Z,19.51185
2022-11-16T23:34:51.948Z,13.51815
2022-11-16T23:39:53.625Z,11.01
2022-11-16T23:44:55.354Z,11.80295
2022-11-16T23:49:57.422Z,8.3174
2022-11-16T23:54:59.060Z,5.9937
